Time;durP1;ratioP1;P1;durP2;ratioP2;P2;SDS_P1;SDS_P2;PMS_P1;PMS_P2;Temp;Humidity;BMP_temperature;BMP_pressure;BME280_temperature;BME280_humidity;BME280_pressure;Samples;Min_cycle;Max_cycle;Signal;HPM_P1;HPM_P2
2022/08/04 00:01:52;;;;;;;;;4.67;4.67;;;;;26.79;50.90;100770.94;5079063;28;47480;-77
2022/08/04 00:04:32;;;;;;;;;2.00;2.00;;;;;26.75;51.18;100778.06;5080553;28;46300;-75
2022/08/04 00:07:00;;;;;;;;;3.67;3.67;;;;;26.70;51.15;100775.38;5080615;28;45322;-75
2022/08/04 00:09:26;;;;;;;;;2.67;2.67;;;;;26.64;51.27;100765.59;5084626;27;45503;-75
2022/08/04 00:11:56;;;;;;;;;2.00;2.00;;;;;26.54;51.46;100772.75;5079073;28;45840;-74
2022/08/04 00:14:23;;;;;;;;;3.00;3.00;;;;;26.53;51.80;100770.28;5080691;28;46778;-75
2022/08/04 00:16:51;;;;;;;;;1.00;1.00;;;;;26.43;51.64;100763.81;5090837;27;45550;-75
2022/08/04 00:19:34;;;;;;;;;2.00;2.00;;;;;26.44;52.15;100770.06;5079470;27;45460;-75
2022/08/04 00:22:04;;;;;;;;;0.00;0.00;;;;;26.42;52.27;100764.91;5089891;27;47229;-75
2022/08/04 00:24:30;;;;;;;;;4.00;3.67;;;;;26.39;52.13;100770.13;5080266;28;45619;-75
2022/08/04 00:26:56;;;;;;;;;4.00;3.67;;;;;26.34;52.67;100758.13;5080433;28;45417;-75
2022/08/04 00:29:22;;;;;;;;;3.00;3.00;;;;;26.36;52.35;100757.06;5080394;28;45244;-75
2022/08/04 00:31:47;;;;;;;;;3.00;3.00;;;;;26.32;52.29;100752.16;5080470;28;45299;-75
2022/08/04 00:34:13;;;;;;;;;3.67;3.67;;;;;26.31;52.58;100755.19;5078717;28;47205;-75
2022/08/04 00:36:42;;;;;;;;;4.00;4.00;;;;;26.30;52.73;100753.53;5078746;28;45931;-75
2022/08/04 00:39:11;;;;;;;;;3.00;3.00;;;;;26.29;52.75;100749.16;5080190;28;45449;-75
2022/08/04 00:41:56;;;;;;;;;4.33;3.00;;;;;26.26;52.89;100747.81;5080072;28;45488;-78
2022/08/04 00:44:55;;;;;;;;;3.00;1.33;;;;;26.23;52.96;100748.38;5087569;27;47121;-77
2022/08/04 00:47:36;;;;;;;;;3.00;3.00;;;;;26.22;53.38;100754.91;5078641;28;45418;-77
2022/08/04 00:50:07;;;;;;;;;4.00;3.00;;;;;26.18;53.57;100757.38;5078852;28;45277;-77
2022/08/04 00:52:45;;;;;;;;;3.00;3.00;;;;;26.13;53.49;100754.69;5079702;28;45510;-75
2022/08/04 00:55:44;;;;;;;;;4.00;4.00;;;;;26.06;53.92;100738.66;5079699;28;45538;-75
2022/08/04 00:58:28;;;;;;;;;5.00;3.33;;;;;26.00;54.03;100738.97;5060196;28;45447;-75
2022/08/04 01:00:58;;;;;;;;;2.67;2.67;;;;;25.94;54.11;100743.59;5078736;28;45386;-77
2022/08/04 01:03:51;;;;;;;;;4.00;2.67;;;;;25.83;54.46;100738.19;5089744;27;46232;-77
2022/08/04 01:06:35;;;;;;;;;3.00;3.00;;;;;25.81;54.84;100748.56;5079745;28;46448;-75
2022/08/04 01:09:09;;;;;;;;;3.00;3.00;;;;;25.74;55.01;100752.66;5079570;27;45347;-78
2022/08/04 01:11:56;;;;;;;;;4.00;4.00;;;;;25.65;54.96;100749.69;5087261;27;45454;-77
2022/08/04 01:14:51;;;;;;;;;5.33;5.33;;;;;25.61;55.11;100756.78;5078396;28;46261;-77
2022/08/04 01:17:34;;;;;;;;;6.00;5.00;;;;;25.55;55.47;100751.31;5090348;27;46429;-77
2022/08/04 01:20:07;;;;;;;;;4.00;4.00;;;;;25.58;55.81;100750.75;5086612;27;45751;-77
2022/08/04 01:22:32;;;;;;;;;4.00;4.00;;;;;25.65;55.60;100755.13;5078016;28;45253;-78
2022/08/04 01:24:57;;;;;;;;;3.33;3.33;;;;;25.64;55.58;100751.59;5079559;28;45355;-77
2022/08/04 01:27:25;;;;;;;;;4.00;4.00;;;;;25.59;55.77;100749.69;5082394;27;48636;-78
2022/08/04 01:29:56;;;;;;;;;6.00;5.33;;;;;25.54;55.94;100755.13;5079607;28;45401;-77
2022/08/04 01:32:37;;;;;;;;;6.00;6.00;;;;;25.50;56.07;100755.97;5079585;27;45140;-78
2022/08/04 01:35:06;;;;;;;;;4.33;4.33;;;;;25.47;56.12;100749.16;5079280;28;45459;-77
2022/08/04 01:37:46;;;;;;;;;6.00;5.00;;;;;25.46;56.49;100755.69;5079090;28;45302;-77
2022/08/04 01:40:14;;;;;;;;;4.67;4.67;;;;;25.43;56.44;100753.50;5079336;28;45316;-78
2022/08/04 01:42:41;;;;;;;;;3.67;3.00;;;;;25.42;56.93;100749.16;5079484;28;45306;-77
2022/08/04 01:45:12;;;;;;;;;5.00;5.00;;;;;25.38;56.87;100748.09;5092965;27;46526;-77
2022/08/04 01:47:41;;;;;;;;;2.67;2.67;;;;;25.36;56.52;100742.09;5077639;28;47312;-77
2022/08/04 01:50:10;;;;;;;;;7.00;5.00;;;;;25.48;56.60;100761.66;5092316;27;45480;-77
2022/08/04 01:52:38;;;;;;;;;5.67;5.67;;;;;25.44;57.31;100749.72;5078990;28;45600;-77
2022/08/04 01:55:09;;;;;;;;;6.00;3.67;;;;;25.54;56.71;100759.75;5079115;28;45429;-77
2022/08/04 01:57:51;;;;;;;;;6.00;6.00;;;;;25.54;57.21;100755.13;5079131;28;45366;-75
2022/08/04 02:00:20;;;;;;;;;5.67;5.67;;;;;25.52;57.08;100754.59;5078963;28;45256;-75
2022/08/04 02:02:46;;;;;;;;;4.00;4.00;;;;;25.51;57.17;100746.69;5078951;28;45326;-75
2022/08/04 02:05:15;;;;;;;;;4.33;4.33;;;;;25.51;56.50;100738.53;5078817;28;45388;-75
2022/08/04 02:07:46;;;;;;;;;3.67;3.67;;;;;25.60;56.28;100747.81;5078707;28;45468;-75
2022/08/04 02:10:34;;;;;;;;;3.00;3.00;;;;;25.59;55.87;100736.09;5081288;28;45342;-75
2022/08/04 02:13:12;;;;;;;;;3.00;3.00;;;;;25.69;55.32;100743.44;5087872;27;45314;-77
2022/08/04 02:15:56;;;;;;;;;2.33;2.33;;;;;25.64;55.64;100740.72;5081059;27;46233;-77
2022/08/04 02:18:26;;;;;;;;;3.00;3.00;;;;;25.67;55.20;100736.59;5090179;27;45328;-77
2022/08/04 02:20:59;;;;;;;;;4.00;4.00;;;;;25.68;55.37;100738.25;5082469;28;45569;-77
2022/08/04 02:23:39;;;;;;;;;2.33;2.33;;;;;25.67;55.34;100737.44;5080982;28;45402;-77
2022/08/04 02:26:12;;;;;;;;;3.67;3.00;;;;;25.70;55.63;100725.19;5082215;27;45431;-77
2022/08/04 02:29:18;;;;;;;;;6.00;4.00;;;;;25.75;55.30;100729.78;5077603;27;48151;-77
2022/08/04 02:31:57;;;;;;;;;4.00;2.00;;;;;25.76;55.33;100720.53;5066389;28;45387;-77
2022/08/04 02:35:01;;;;;;;;;2.67;2.67;;;;;25.70;55.32;100725.19;5082242;28;45315;-77
2022/08/04 02:37:34;;;;;;;;;5.00;5.00;;;;;25.69;55.18;100720.84;5019443;28;45723;-78
2022/08/04 02:40:03;;;;;;;;;5.00;4.67;;;;;25.65;55.10;100711.59;4999142;28;46394;-77
2022/08/04 02:42:29;;;;;;;;;4.00;4.00;;;;;25.67;55.20;100720.28;5043012;28;45344;-78
2022/08/04 02:44:58;;;;;;;;;2.67;2.67;;;;;25.62;55.71;100709.44;5082039;28;45488;-77
2022/08/04 02:47:26;;;;;;;;;5.00;5.00;;;;;25.63;55.40;100722.75;5081839;28;45349;-77
2022/08/04 02:49:53;;;;;;;;;4.67;4.67;;;;;25.61;55.52;100724.94;5092719;27;47449;-77
2022/08/04 02:52:19;;;;;;;;;4.33;4.00;;;;;25.53;55.67;100718.13;5080694;28;45284;-77
2022/08/04 02:54:47;;;;;;;;;6.00;6.00;;;;;25.52;55.57;100737.44;5090879;27;45464;-77
2022/08/04 02:57:16;;;;;;;;;5.00;5.00;;;;;25.47;55.65;100733.66;5080625;28;45899;-77
2022/08/04 03:00:11;;;;;;;;;4.00;4.00;;;;;25.44;55.75;100738.84;5080516;27;46843;-77
2022/08/04 03:02:48;;;;;;;;;3.67;3.67;;;;;25.43;55.92;100734.47;5081787;28;45419;-77
2022/08/04 03:05:21;;;;;;;;;5.33;3.00;;;;;25.41;55.79;100725.78;5093512;27;45491;-77
2022/08/04 03:07:46;;;;;;;;;6.00;5.67;;;;;25.42;55.85;100727.41;5081827;28;45285;-77
2022/08/04 03:10:29;;;;;;;;;4.00;3.67;;;;;25.39;55.86;100728.78;5081453;28;46313;-77
2022/08/04 03:13:26;;;;;;;;;4.33;3.67;;;;;25.36;56.04;100721.16;5086103;27;45882;-77
2022/08/04 03:16:07;;;;;;;;;6.00;4.00;;;;;25.33;56.24;100722.53;5083704;27;45247;-78
2022/08/04 03:19:03;;;;;;;;;4.00;4.00;;;;;25.29;56.18;100729.59;5087910;27;45343;-76
2022/08/04 03:21:31;;;;;;;;;6.00;6.00;;;;;25.29;56.06;100734.25;5080218;28;45462;-77
2022/08/04 03:24:43;;;;;;;;;5.00;3.33;;;;;25.27;55.82;100733.69;5092587;27;46125;-77
2022/08/04 03:27:29;;;;;;;;;6.67;4.33;;;;;25.21;55.62;100741.03;5081392;27;45322;-75
2022/08/04 03:30:03;;;;;;;;;3.00;3.00;;;;;25.19;55.88;100745.91;5081154;28;45282;-77
2022/08/04 03:32:55;;;;;;;;;7.33;6.33;;;;;25.14;56.01;100752.19;5080859;28;46303;-77
2022/08/04 03:35:34;;;;;;;;;3.33;3.33;;;;;25.03;56.17;100732.34;5081290;28;45350;-77
2022/08/04 03:38:08;;;;;;;;;4.00;3.00;;;;;25.03;56.56;100736.97;5081068;28;45409;-77
2022/08/04 03:40:56;;;;;;;;;5.00;5.00;;;;;25.03;56.44;100734.25;5085557;27;47069;-77
2022/08/04 03:43:45;;;;;;;;;4.33;3.00;;;;;25.00;56.52;100734.78;5081004;28;46261;-77
2022/08/04 03:46:50;;;;;;;;;5.00;4.67;;;;;24.95;56.78;100736.44;5081094;28;45314;-77
2022/08/04 03:49:36;;;;;;;;;5.00;5.00;;;;;24.92;56.76;100722.56;5081173;28;45377;-77
2022/08/04 03:53:08;;;;;;;;;6.67;5.67;;;;;24.88;56.69;100726.91;5081295;27;45330;-77
2022/08/04 03:55:43;;;;;;;;;7.00;4.33;;;;;24.90;56.75;100733.69;5080872;28;45295;-77
2022/08/04 03:58:23;;;;;;;;;4.00;3.00;;;;;24.89;56.54;100734.78;5089746;27;45703;-77
2022/08/04 04:00:52;;;;;;;;;4.33;4.33;;;;;24.87;56.63;100731.53;5081010;28;45317;-77
2022/08/04 04:03:35;;;;;;;;;6.00;4.00;;;;;24.89;56.88;100731.25;5080494;28;45378;-77
2022/08/04 04:06:06;;;;;;;;;3.33;3.00;;;;;24.87;56.86;100728.81;5080867;27;46578;-77
2022/08/04 04:09:15;;;;;;;;;6.33;5.33;;;;;24.82;57.03;100729.63;5091539;27;45331;-77
2022/08/04 04:12:30;;;;;;;;;4.00;4.00;;;;;24.80;56.72;100737.22;5025258;28;45582;-77
2022/08/04 04:15:40;;;;;;;;;6.67;6.67;;;;;24.81;57.36;100746.97;5041049;28;46114;-75
2022/08/04 04:18:19;;;;;;;;;4.00;4.00;;;;;24.73;57.14;100750.25;5004419;28;45677;-77
2022/08/04 04:21:03;;;;;;;;;4.00;4.00;;;;;24.72;56.88;100762.19;5076839;28;45254;-77
2022/08/04 04:24:21;;;;;;;;;4.00;4.00;;;;;24.58;57.27;100748.31;5079754;28;45291;-77
2022/08/04 04:27:01;;;;;;;;;3.67;3.00;;;;;24.62;57.68;100743.16;5034653;27;45482;-77
2022/08/04 04:29:29;;;;;;;;;5.00;5.00;;;;;24.61;57.43;100744.25;5077945;28;47207;-77
2022/08/04 04:32:10;;;;;;;;;3.67;3.67;;;;;24.62;57.04;100743.16;5079474;28;45342;-77
2022/08/04 04:34:57;;;;;;;;;4.00;4.00;;;;;24.62;57.02;100735.00;5080199;28;45318;-76
2022/08/04 04:37:45;;;;;;;;;4.00;4.00;;;;;24.62;57.64;100732.28;5070160;28;45307;-77
2022/08/04 04:40:59;;;;;;;;;6.33;6.33;;;;;24.64;57.26;100727.41;5079843;28;46630;-75
2022/08/04 04:44:05;;;;;;;;;5.33;4.00;;;;;24.62;57.73;100726.84;5061240;28;45708;-77
2022/08/04 04:46:41;;;;;;;;;4.33;2.67;;;;;24.64;57.56;100735.56;5080226;28;45268;-75
2022/08/04 04:49:28;;;;;;;;;4.33;4.33;;;;;24.60;57.65;100746.13;5078788;28;45252;-77
2022/08/04 04:52:12;;;;;;;;;4.00;4.00;;;;;24.59;57.57;100745.34;5063865;28;45429;-77
2022/08/04 04:54:44;;;;;;;;;5.00;5.00;;;;;24.61;57.24;100749.69;5077721;28;45283;-77
2022/08/04 04:57:19;;;;;;;;;4.33;4.00;;;;;24.64;57.50;100770.88;5070512;28;45381;-77
2022/08/04 04:59:54;;;;;;;;;4.00;3.33;;;;;24.58;57.78;100772.78;5072197;28;45410;-79
2022/08/04 05:02:48;;;;;;;;;4.33;4.33;;;;;24.58;57.10;100776.28;5098084;28;45246;-78
2022/08/04 05:05:42;;;;;;;;;4.67;3.33;;;;;24.57;57.33;100766.50;5095382;28;45346;-79
2022/08/04 05:08:16;;;;;;;;;6.67;6.67;;;;;24.56;57.99;100770.31;5067943;28;45386;-77
2022/08/04 05:11:05;;;;;;;;;6.00;5.00;;;;;24.57;57.70;100776.59;5081947;28;46068;-75
2022/08/04 05:13:30;;;;;;;;;5.00;5.00;;;;;24.57;57.93;100773.88;5081395;28;45520;-75
2022/08/04 05:16:04;;;;;;;;;5.67;5.33;;;;;24.55;57.73;100781.47;5090603;27;45270;-76
2022/08/04 05:18:33;;;;;;;;;5.33;5.33;;;;;24.55;57.64;100790.44;5082765;27;45219;-75
2022/08/04 05:21:09;;;;;;;;;4.67;4.00;;;;;24.57;57.49;100811.91;5079749;28;45223;-76
2022/08/04 05:23:39;;;;;;;;;6.33;5.33;;;;;24.49;58.24;100815.13;5079209;28;46182;-76
2022/08/04 05:26:12;;;;;;;;;8.67;6.00;;;;;24.42;58.58;100807.22;5085305;27;45398;-76
2022/08/04 05:28:54;;;;;;;;;6.67;5.67;;;;;24.38;59.06;100800.69;5079948;27;45389;-74
2022/08/04 05:31:25;;;;;;;;;4.33;4.33;;;;;24.28;58.36;100793.31;5079249;28;45504;-76
2022/08/04 05:33:58;;;;;;;;;5.67;4.67;;;;;24.31;58.60;100806.38;5084240;27;47542;-74
2022/08/04 05:36:32;;;;;;;;;6.67;4.67;;;;;24.34;58.67;100805.84;5068489;28;45463;-76
2022/08/04 05:38:59;;;;;;;;;5.67;5.67;;;;;24.41;58.52;100830.03;5059100;28;45306;-77
2022/08/04 05:41:26;;;;;;;;;3.33;3.33;;;;;24.41;58.39;100820.00;5057732;28;46238;-77
2022/08/04 05:43:53;;;;;;;;;5.00;5.00;;;;;24.48;58.37;100819.72;5077919;28;47541;-77
2022/08/04 05:46:19;;;;;;;;;7.00;6.33;;;;;24.50;59.04;100812.13;5084704;28;45324;-73
2022/08/04 05:48:45;;;;;;;;;6.00;6.00;;;;;24.54;59.74;100815.94;5091238;27;45345;-75
2022/08/04 05:51:12;;;;;;;;;3.67;2.67;;;;;24.54;59.04;100815.16;5092394;28;45491;-76
2022/08/04 05:53:43;;;;;;;;;5.33;5.33;;;;;24.52;59.35;100822.72;5085138;28;48726;-76
2022/08/04 05:56:10;;;;;;;;;7.33;6.00;;;;;24.51;59.90;100818.41;5077673;28;45411;-75
2022/08/04 05:58:37;;;;;;;;;4.00;4.00;;;;;24.53;59.76;100814.31;5086439;28;45268;-75
2022/08/04 06:01:04;;;;;;;;;4.33;3.00;;;;;24.52;59.68;100811.88;5086156;28;45286;-74
2022/08/04 06:03:32;;;;;;;;;4.00;4.00;;;;;24.57;58.37;100811.91;5070895;28;45339;-74
2022/08/04 06:05:58;;;;;;;;;4.00;4.00;;;;;24.58;59.08;100818.94;5078870;28;45230;-75
2022/08/04 06:08:24;;;;;;;;;5.00;4.00;;;;;24.57;58.44;100820.03;5079128;28;45471;-74
2022/08/04 06:10:52;;;;;;;;;3.00;3.00;;;;;24.50;58.56;100795.00;5078856;28;45530;-74
2022/08/04 06:13:24;;;;;;;;;4.00;4.00;;;;;24.48;58.11;100808.84;5078899;28;45354;-74
2022/08/04 06:15:52;;;;;;;;;2.00;2.00;;;;;24.46;58.24;100805.59;5080759;27;45417;-74
2022/08/04 06:18:18;;;;;;;;;5.67;4.00;;;;;24.46;58.13;100806.41;5064683;28;45388;-75
2022/08/04 06:20:46;;;;;;;;;5.00;4.33;;;;;24.48;57.48;100806.13;5086364;27;45541;-76
2022/08/04 06:23:15;;;;;;;;;4.67;4.33;;;;;24.46;57.46;100800.19;5075030;28;46982;-76
2022/08/04 06:25:48;;;;;;;;;4.67;4.00;;;;;24.57;57.89;100806.47;5077139;27;45388;-75
2022/08/04 06:28:16;;;;;;;;;4.33;4.33;;;;;24.58;57.38;100811.59;5076080;28;45537;-76
2022/08/04 06:30:46;;;;;;;;;4.00;4.00;;;;;24.58;57.19;100814.31;5056738;28;46310;-75
2022/08/04 06:33:31;;;;;;;;;4.67;4.67;;;;;24.62;57.07;100813.78;5077017;28;45413;-75
2022/08/04 06:35:58;;;;;;;;;5.33;4.00;;;;;24.63;57.60;100818.16;5077157;28;45424;-74
2022/08/04 06:38:26;;;;;;;;;4.00;4.00;;;;;24.69;57.46;100817.09;5059439;28;45374;-76
2022/08/04 06:40:53;;;;;;;;;3.00;2.00;;;;;24.71;56.84;100828.50;5059238;28;45804;-75
2022/08/04 06:43:21;;;;;;;;;3.67;3.67;;;;;24.76;56.96;100830.41;5058920;28;48086;-75
2022/08/04 06:45:47;;;;;;;;;3.00;3.00;;;;;24.81;57.02;100836.66;5076492;28;45597;-74
2022/08/04 06:48:15;;;;;;;;;3.00;2.00;;;;;24.82;56.50;100832.88;5085914;27;45457;-74
2022/08/04 06:50:44;;;;;;;;;5.00;4.00;;;;;24.84;57.28;100824.44;5075490;28;46300;-73
2022/08/04 06:53:10;;;;;;;;;3.00;3.00;;;;;24.85;56.78;100820.66;5075651;28;47892;-73
2022/08/04 06:55:36;;;;;;;;;4.00;3.00;;;;;24.91;56.81;100833.19;5074334;28;45266;-73
2022/08/04 06:58:01;;;;;;;;;5.67;4.67;;;;;24.97;56.94;100839.44;5073466;28;45592;-74
2022/08/04 07:00:28;;;;;;;;;3.00;3.00;;;;;25.03;56.96;100837.56;5082665;27;45324;-73
2022/08/04 07:02:54;;;;;;;;;4.00;3.33;;;;;25.07;56.12;100834.03;5079414;28;45341;-72
2022/08/04 07:05:20;;;;;;;;;4.00;4.00;;;;;25.06;56.35;100817.97;5080343;28;45429;-73
2022/08/04 07:07:46;;;;;;;;;2.00;2.00;;;;;25.12;56.42;100821.50;5078719;28;45324;-73
2022/08/04 07:10:13;;;;;;;;;3.00;3.00;;;;;25.22;56.12;100818.78;5076019;28;47433;-74
2022/08/04 07:12:39;;;;;;;;;2.33;2.33;;;;;25.29;55.93;100830.22;5069967;28;46622;-73
2022/08/04 07:15:07;;;;;;;;;4.00;3.67;;;;;25.29;56.18;100818.53;5083673;28;45220;-73
2022/08/04 07:17:35;;;;;;;;;4.00;3.00;;;;;25.36;56.01;100834.56;5076595;27;45535;-73
2022/08/04 07:20:01;;;;;;;;;4.00;4.00;;;;;25.40;55.67;100830.22;5077337;27;45578;-73
2022/08/04 07:22:28;;;;;;;;;4.33;4.33;;;;;25.39;55.77;100840.28;5079994;27;46675;-73
2022/08/04 07:24:55;;;;;;;;;4.33;4.00;;;;;25.36;55.90;100848.16;5082073;28;45389;-73
2022/08/04 07:27:21;;;;;;;;;3.00;3.00;;;;;25.34;56.15;100848.44;5074280;28;45460;-73
2022/08/04 07:29:47;;;;;;;;;3.33;3.33;;;;;25.29;55.46;100851.19;5074149;28;45490;-73
2022/08/04 07:32:14;;;;;;;;;4.00;2.67;;;;;25.27;56.23;100845.19;5080336;28;47577;-73
2022/08/04 07:34:40;;;;;;;;;2.67;2.67;;;;;25.29;55.42;100851.19;5077551;27;45310;-73
2022/08/04 07:37:06;;;;;;;;;4.00;3.00;;;;;25.29;55.93;100862.06;5093817;27;47522;-74
2022/08/04 07:39:32;;;;;;;;;3.00;2.67;;;;;25.36;55.61;100862.59;5086070;28;45531;-74
2022/08/04 07:42:00;;;;;;;;;4.00;3.67;;;;;25.43;56.22;100871.28;5083284;28;46440;-74
2022/08/04 07:44:26;;;;;;;;;4.00;4.00;;;;;25.45;55.92;100865.59;5086417;28;45349;-74
2022/08/04 07:46:51;;;;;;;;;4.00;4.00;;;;;25.46;55.73;100865.31;5083324;28;46783;-74
2022/08/04 07:49:19;;;;;;;;;4.00;4.00;;;;;25.43;55.88;100865.03;5089341;27;46314;-73
2022/08/04 07:51:45;;;;;;;;;5.33;5.33;;;;;25.47;55.65;100872.38;5077860;28;48292;-75
2022/08/04 07:54:12;;;;;;;;;4.33;4.33;;;;;25.50;55.69;100865.56;5080136;28;45629;-74
2022/08/04 07:56:40;;;;;;;;;6.00;4.33;;;;;25.57;55.92;100874.28;5081708;28;45320;-74
2022/08/04 07:59:05;;;;;;;;;4.67;4.67;;;;;25.65;55.78;100874.88;5082195;28;45508;-74
2022/08/04 08:01:33;;;;;;;;;4.00;4.00;;;;;25.74;55.60;100877.84;5097054;27;48094;-74
2022/08/04 08:03:59;;;;;;;;;2.33;2.33;;;;;25.81;55.41;100884.66;5086480;28;45513;-75
2022/08/04 08:06:25;;;;;;;;;5.67;4.67;;;;;25.90;55.64;100886.78;5084415;28;45472;-74
2022/08/04 08:08:50;;;;;;;;;4.33;4.33;;;;;26.03;55.49;100890.84;5080994;28;45346;-74
2022/08/04 08:11:17;;;;;;;;;3.67;3.67;;;;;26.14;54.99;100887.03;5084197;28;46696;-76
2022/08/04 08:13:44;;;;;;;;;3.00;3.00;;;;;26.27;55.05;100885.63;5070212;28;46146;-74
2022/08/04 08:16:10;;;;;;;;;4.00;4.00;;;;;26.42;54.35;100895.69;5090430;27;45565;-76
2022/08/04 08:18:36;;;;;;;;;2.00;2.00;;;;;26.51;54.71;100895.91;5084571;28;45607;-76
2022/08/04 08:21:01;;;;;;;;;5.33;4.00;;;;;26.59;54.14;100884.44;5087772;28;46672;-75
2022/08/04 08:23:30;;;;;;;;;4.00;4.00;;;;;26.62;53.97;100884.97;5081542;28;45419;-73
2022/08/04 08:25:58;;;;;;;;;3.33;2.67;;;;;26.59;54.27;100870.81;5082600;28;45402;-74
2022/08/04 08:28:24;;;;;;;;;3.00;3.00;;;;;26.58;53.78;100877.34;5093856;27;45271;-77
2022/08/04 08:30:50;;;;;;;;;2.67;2.67;;;;;26.57;54.25;100883.06;5087014;27;47044;-76
2022/08/04 08:33:16;;;;;;;;;4.67;3.33;;;;;26.56;54.41;100886.91;5085956;28;45323;-75
2022/08/04 08:36:03;;;;;;;;;2.67;2.33;;;;;26.53;54.39;100891.00;5084002;28;45354;-75
2022/08/04 08:38:37;;;;;;;;;4.67;4.67;;;;;26.55;53.97;100896.97;5088723;28;45587;-75
2022/08/04 08:41:27;;;;;;;;;3.33;3.33;;;;;26.59;54.36;100902.69;5085916;28;45324;-76
2022/08/04 08:44:17;;;;;;;;;3.33;2.00;;;;;26.56;54.37;100904.06;5079280;28;45423;-77
2022/08/04 08:46:53;;;;;;;;;3.00;3.00;;;;;26.49;54.01;100910.91;5081858;28;45325;-77
2022/08/04 08:50:03;;;;;;;;;3.67;3.67;;;;;26.37;54.66;100925.66;5081408;28;45338;-77
2022/08/04 08:52:47;;;;;;;;;4.00;3.00;;;;;26.28;54.87;100914.47;5017358;28;45373;-77
2022/08/04 08:55:25;;;;;;;;;4.67;4.67;;;;;26.24;55.73;100910.69;5001996;28;45395;-77
2022/08/04 08:58:08;;;;;;;;;5.67;4.67;;;;;26.13;57.13;100900.91;5055559;28;45485;-76
2022/08/04 09:01:05;;;;;;;;;4.67;4.67;;;;;26.14;58.69;100927.03;5082433;28;45920;-77
2022/08/04 09:04:01;;;;;;;;;6.00;6.00;;;;;26.03;58.64;100921.63;5079696;28;47327;-78
2022/08/04 09:06:35;;;;;;;;;7.00;5.67;;;;;25.91;58.87;100926.53;5086578;27;45334;-78
2022/08/04 09:09:19;;;;;;;;;6.00;4.67;;;;;25.80;60.20;100907.50;5080021;28;45303;-79
2022/08/04 09:12:00;;;;;;;;;6.67;6.00;;;;;25.71;60.61;100912.66;5080431;28;45196;-78
2022/08/04 09:14:44;;;;;;;;;5.33;5.33;;;;;25.74;60.71;100943.97;5082509;27;48511;-78
2022/08/04 09:17:22;;;;;;;;;7.67;6.67;;;;;25.68;61.00;100945.06;5091241;27;45776;-78
2022/08/04 09:19:57;;;;;;;;;4.00;4.00;;;;;25.61;61.45;100922.75;5078954;28;45376;-78
2022/08/04 09:22:32;;;;;;;;;6.33;6.00;;;;;25.63;62.48;100917.84;5079382;28;45264;-80
2022/08/04 09:25:16;;;;;;;;;7.33;5.00;;;;;25.60;63.78;100892.00;5078069;28;47061;-80
2022/08/04 09:27:49;;;;;;;;;4.33;4.33;;;;;25.57;64.29;100898.78;5079271;28;45469;-81
2022/08/04 09:30:18;;;;;;;;;8.67;8.00;;;;;25.63;64.42;100913.22;5080183;28;45392;-80
2022/08/04 09:33:19;;;;;;;;;9.00;7.00;;;;;25.69;64.39;100906.69;5078731;28;47302;-79
2022/08/04 09:36:00;;;;;;;;;6.00;6.00;;;;;25.74;64.17;100907.78;5082345;28;46578;-79
2022/08/04 09:38:50;;;;;;;;;5.67;5.33;;;;;25.74;64.06;100903.16;5080020;28;45342;-79
2022/08/04 09:41:15;;;;;;;;;6.67;6.67;;;;;25.84;64.32;100933.09;5081429;28;45451;-79
2022/08/04 09:44:20;;;;;;;;;6.67;6.67;;;;;25.91;64.00;100942.88;5079041;28;46630;-79
2022/08/04 09:46:51;;;;;;;;;6.00;3.00;;;;;26.00;64.07;100945.88;5076073;28;48329;-79
2022/08/04 09:49:21;;;;;;;;;4.00;4.00;;;;;26.03;64.17;100934.41;5072391;28;45216;-79
2022/08/04 09:51:50;;;;;;;;;5.00;4.67;;;;;26.09;63.34;100930.59;5082309;28;45393;-79
2022/08/04 09:54:33;;;;;;;;;3.00;3.00;;;;;26.10;64.47;100927.59;5079220;28;46668;-78
2022/08/04 09:57:16;;;;;;;;;8.67;7.00;;;;;26.17;62.81;100948.28;5065379;28;45515;-79
2022/08/04 10:00:03;;;;;;;;;5.33;5.00;;;;;26.10;62.17;100933.03;5087105;27;45334;-79
2022/08/04 10:02:37;;;;;;;;;6.00;6.00;;;;;26.14;62.35;100944.22;5077633;28;45378;-78
2022/08/04 10:05:08;;;;;;;;;9.33;9.33;;;;;26.14;61.66;100938.75;5079177;28;45529;-78
2022/08/04 10:07:48;;;;;;;;;8.33;7.33;;;;;26.21;62.39;100942.00;5081263;27;47364;-78
2022/08/04 10:10:25;;;;;;;;;8.33;7.00;;;;;26.21;62.96;100920.22;5077554;28;45799;-77
2022/08/04 10:13:08;;;;;;;;;6.67;6.33;;;;;26.32;62.41;100951.00;5078977;28;45344;-77
2022/08/04 10:15:54;;;;;;;;;7.00;6.67;;;;;26.32;62.39;100929.22;5078743;28;45387;-77
2022/08/04 10:18:38;;;;;;;;;6.67;5.00;;;;;26.40;62.40;100935.19;5068854;28;48605;-77
2022/08/04 10:21:13;;;;;;;;;10.33;8.00;;;;;26.38;62.21;100924.56;5080236;27;46261;-76
2022/08/04 10:23:51;;;;;;;;;7.33;4.67;;;;;26.43;61.33;100929.19;5076966;28;45362;-76
2022/08/04 10:26:47;;;;;;;;;7.00;7.00;;;;;26.46;61.78;100934.09;5068963;28;45455;-76
2022/08/04 10:29:26;;;;;;;;;6.00;6.00;;;;;26.53;62.25;100926.44;5078532;28;45342;-77
2022/08/04 10:31:59;;;;;;;;;5.00;5.00;;;;;26.63;61.69;100930.22;5082011;28;45515;-75
2022/08/04 10:34:39;;;;;;;;;6.67;6.00;;;;;26.60;62.08;100915.22;5067226;28;45403;-75
2022/08/04 10:37:27;;;;;;;;;5.00;5.00;;;;;26.67;62.44;100925.84;5080880;28;46527;-75
2022/08/04 10:42:59;;;;;;;;;4.33;4.33;;;;;26.63;60.80;100917.38;5074123;28;45358;-75
2022/08/04 10:45:44;;;;;;;;;3.00;3.00;;;;;26.60;61.43;100921.50;5082247;28;45377;-76
2022/08/04 10:48:43;;;;;;;;;3.00;3.00;;;;;26.64;61.53;100926.38;5081717;28;45339;-76
2022/08/04 10:51:24;;;;;;;;;3.33;3.33;;;;;26.69;61.69;100931.81;5082066;28;45790;-76
2022/08/04 10:53:56;;;;;;;;;3.33;3.33;;;;;26.68;61.15;100920.09;5097316;27;45349;-75
2022/08/04 10:56:31;;;;;;;;;4.67;4.00;;;;;26.79;61.16;100926.28;5082056;28;45294;-75
2022/08/04 10:59:05;;;;;;;;;6.00;5.00;;;;;26.87;60.97;100918.66;5081974;28;45410;-75
2022/08/04 11:01:41;;;;;;;;;4.67;3.33;;;;;26.99;59.80;100918.34;5090560;27;47268;-75
2022/08/04 11:04:16;;;;;;;;;4.33;4.33;;;;;27.00;59.78;100907.16;5080293;28;45262;-76
2022/08/04 11:06:45;;;;;;;;;4.00;4.00;;;;;26.99;59.49;100888.34;5080514;28;45371;-76
2022/08/04 11:09:11;;;;;;;;;4.00;4.00;;;;;27.25;59.73;100908.06;5081831;28;45527;-77
2022/08/04 11:11:52;;;;;;;;;7.00;4.67;;;;;27.48;59.09;100905.72;5081586;28;45299;-77
2022/08/04 11:14:21;;;;;;;;;4.00;1.00;;;;;27.76;59.67;100903.34;5083932;27;45243;-77
2022/08/04 11:16:53;;;;;;;;;5.00;4.00;;;;;28.05;58.21;100910.69;5091770;27;45864;-76
2022/08/04 11:19:55;;;;;;;;;4.33;4.33;;;;;28.35;57.53;100910.69;5067035;27;45604;-75
2022/08/04 11:22:23;;;;;;;;;4.33;4.33;;;;;28.54;56.67;100918.91;5073843;28;45715;-75
2022/08/04 11:25:13;;;;;;;;;4.67;4.67;;;;;28.71;55.96;100912.16;5080080;28;45405;-75
2022/08/04 11:28:16;;;;;;;;;3.67;3.67;;;;;28.88;55.91;100910.81;5079509;28;45575;-76
2022/08/04 11:31:06;;;;;;;;;4.00;3.00;;;;;29.01;54.64;100912.03;5081018;28;45289;-75
2022/08/04 11:33:57;;;;;;;;;4.67;4.00;;;;;29.16;54.48;100916.47;5072662;28;46639;-76
2022/08/04 11:36:28;;;;;;;;;4.33;4.33;;;;;29.32;53.64;100917.03;5087053;27;46196;-74
2022/08/04 11:39:06;;;;;;;;;2.67;2.67;;;;;29.48;52.19;100923.09;5080491;28;45287;-75
2022/08/04 11:42:07;;;;;;;;;5.67;5.67;;;;;29.56;52.60;100919.69;5080197;28;45489;-76
2022/08/04 11:44:48;;;;;;;;;4.00;4.00;;;;;29.75;52.15;100916.09;5064784;28;45671;-76
2022/08/04 11:47:33;;;;;;;;;6.00;4.33;;;;;29.96;52.28;100908.28;5069230;28;45525;-76
2022/08/04 11:50:27;;;;;;;;;4.67;4.00;;;;;30.25;51.33;100920.13;5078596;28;45261;-78
2022/08/04 11:52:57;;;;;;;;;3.67;3.33;;;;;30.45;51.26;100929.88;5066916;28;45603;-78
2022/08/04 11:55:26;;;;;;;;;3.00;3.00;;;;;30.71;50.78;100925.78;5078390;28;47761;-77
2022/08/04 11:57:52;;;;;;;;;4.00;3.67;;;;;30.85;50.35;100921.09;5079569;27;45374;-78
2022/08/04 12:00:18;;;;;;;;;2.67;2.67;;;;;31.03;49.95;100921.25;5079001;27;45546;-78
2022/08/04 12:03:17;;;;;;;;;4.67;4.00;;;;;31.27;49.43;100928.38;5076414;27;45331;-75
2022/08/04 12:05:52;;;;;;;;;3.67;2.67;;;;;31.43;48.48;100919.81;5079048;28;45642;-76
2022/08/04 12:08:31;;;;;;;;;3.00;3.00;;;;;31.59;47.77;100918.28;5084809;27;45947;-76
2022/08/04 12:11:18;;;;;;;;;3.67;3.33;;;;;31.71;47.35;100922.38;5079403;28;45362;-74